createdAt,value
2022-10-18T00:00:43.123Z,13.85
2022-10-18T00:03:10.615Z,13.80
2022-10-18T00:05:37.366Z,13.84
2022-10-18T00:08:03.643Z,13.64
2022-10-18T00:10:30.142Z,13.64
2022-10-18T00:12:56.609Z,13.70
2022-10-18T00:15:22.938Z,13.73
2022-10-18T00:17:49.705Z,13.73
2022-10-18T00:20:16.280Z,13.76
2022-10-18T00:22:42.606Z,13.52
2022-10-18T00:25:09.447Z,13.53
2022-10-18T00:27:35.736Z,13.47
2022-10-18T00:30:02.021Z,13.51
2022-10-18T00:32:29.009Z,13.32
2022-10-18T00:34:55.564Z,13.38
2022-10-18T00:37:21.829Z,13.23
2022-10-18T00:39:48.523Z,13.37
2022-10-18T00:42:14.879Z,13.36
2022-10-18T00:44:41.213Z,13.41
2022-10-18T00:47:07.854Z,13.40
2022-10-18T00:49:37.605Z,13.45
2022-10-18T00:52:03.916Z,13.39
2022-10-18T00:54:31.285Z,13.27
2022-10-18T00:56:58.490Z,13.24
2022-10-18T00:59:24.813Z,13.30
2022-10-18T01:01:51.355Z,13.33
2022-10-18T01:04:17.761Z,13.30
2022-10-18T01:06:44.282Z,13.26
2022-10-18T01:09:10.876Z,13.26
2022-10-18T01:11:37.195Z,13.26
2022-10-18T01:14:03.561Z,13.25
2022-10-18T01:16:30.276Z,13.28
2022-10-18T01:18:58.904Z,13.25
2022-10-18T01:21:25.274Z,13.24
2022-10-18T01:23:54.454Z,13.24
2022-10-18T01:26:20.801Z,13.04
2022-10-18T01:28:47.187Z,13.08
2022-10-18T01:31:16.213Z,13.06
2022-10-18T01:33:42.469Z,12.92
2022-10-18T01:36:10.803Z,12.94
2022-10-18T01:38:37.547Z,12.99
2022-10-18T01:41:04.711Z,13.04
2022-10-18T01:43:31.005Z,13.04
2022-10-18T01:45:57.650Z,13.03
2022-10-18T01:48:24.110Z,12.98
2022-10-18T01:50:50.808Z,12.98
2022-10-18T01:53:18.258Z,12.98
2022-10-18T01:55:44.885Z,12.97
2022-10-18T01:58:11.835Z,12.96
2022-10-18T02:00:38.386Z,12.96
2022-10-18T02:03:04.745Z,12.88
2022-10-18T02:05:31.014Z,12.88
2022-10-18T02:08:12.189Z,12.84
2022-10-18T02:10:44.349Z,12.72
2022-10-18T02:13:10.928Z,12.78
2022-10-18T02:15:37.344Z,12.73
2022-10-18T02:18:03.641Z,12.74
2022-10-18T02:20:30.478Z,12.79
2022-10-18T02:22:56.781Z,12.78
2022-10-18T02:25:23.124Z,12.77
2022-10-18T02:27:49.718Z,12.72
2022-10-18T02:30:16.247Z,12.72
2022-10-18T02:32:42.514Z,12.74
2022-10-18T02:46:08.625Z,12.48
2022-10-18T02:48:34.962Z,12.46
2022-10-18T02:51:01.236Z,12.48
2022-10-18T02:53:27.624Z,12.41
2022-10-18T02:55:53.890Z,12.33
2022-10-18T02:58:20.169Z,12.38
2022-10-18T03:00:46.647Z,12.45
2022-10-18T03:03:12.944Z,12.41
2022-10-18T03:05:39.233Z,12.40
2022-10-18T03:08:05.786Z,12.37
2022-10-18T03:10:32.115Z,12.33
2022-10-18T03:12:58.793Z,12.20
2022-10-18T03:15:28.232Z,12.13
2022-10-18T03:17:54.486Z,12.06
2022-10-18T03:20:21.013Z,11.90
2022-10-18T03:22:47.415Z,11.95
2022-10-18T03:25:14.233Z,12.03
2022-10-18T03:27:44.661Z,12.04
2022-10-18T03:30:11.983Z,12.02
2022-10-18T03:32:38.752Z,11.94
2022-10-18T03:35:05.044Z,11.98
2022-10-18T03:37:31.493Z,11.90
2022-10-18T03:39:57.791Z,11.91
2022-10-18T03:42:24.071Z,11.98
2022-10-18T03:44:50.401Z,12.00
2022-10-18T03:47:17.991Z,12.01
2022-10-18T03:49:44.269Z,11.95
2022-10-18T03:52:10.812Z,11.78
2022-10-18T03:54:37.091Z,11.80
2022-10-18T03:57:03.375Z,11.77
2022-10-18T03:59:29.664Z,11.61
2022-10-18T04:01:56.038Z,11.66
2022-10-18T04:04:22.348Z,11.76
2022-10-18T04:06:48.923Z,11.77
2022-10-18T04:09:15.225Z,11.82
2022-10-18T04:11:41.949Z,11.82
2022-10-18T04:14:08.245Z,11.76
2022-10-18T04:19:05.689Z,11.72
2022-10-18T04:21:32.500Z,11.75
2022-10-18T04:24:01.127Z,11.75
2022-10-18T04:26:27.632Z,11.76
2022-10-18T04:28:54.429Z,11.63
2022-10-18T04:31:21.331Z,11.52
2022-10-18T04:33:47.611Z,11.49
2022-10-18T04:36:15.166Z,11.50
2022-10-18T04:38:41.674Z,11.54
2022-10-18T04:41:07.966Z,11.56
2022-10-18T04:43:34.621Z,11.57
2022-10-18T04:46:00.915Z,11.57
2022-10-18T04:48:27.292Z,11.55
2022-10-18T04:50:53.869Z,11.54
2022-10-18T04:53:20.144Z,11.49
2022-10-18T04:55:46.414Z,11.49
2022-10-18T04:58:12.709Z,11.23
2022-10-18T05:00:40.133Z,10.90
2022-10-18T05:03:06.600Z,11.12
2022-10-18T05:05:43.484Z,11.17
2022-10-18T05:08:19.579Z,11.09
2022-10-18T05:10:46.234Z,11.17
2022-10-18T05:13:12.850Z,11.18
2022-10-18T05:15:39.342Z,11.22
2022-10-18T05:18:05.885Z,11.12
2022-10-18T05:20:32.411Z,11.16
2022-10-18T05:22:58.652Z,11.19
2022-10-18T05:25:25.184Z,11.20
2022-10-18T05:27:51.471Z,11.18
2022-10-18T05:30:17.916Z,11.12
2022-10-18T05:32:44.370Z,11.15
2022-10-18T05:35:10.806Z,11.16
2022-10-18T05:37:37.139Z,11.11
2022-10-18T05:40:03.609Z,11.11
2022-10-18T05:42:30.426Z,11.03
2022-10-18T05:44:56.832Z,10.79
2022-10-18T05:47:23.240Z,10.79
2022-10-18T05:49:49.766Z,10.78
2022-10-18T05:52:16.196Z,10.74
2022-10-18T05:54:42.725Z,10.68
2022-10-18T05:57:09.015Z,10.72
2022-10-18T05:59:35.295Z,10.83
2022-10-18T06:02:01.780Z,10.99
2022-10-18T06:04:28.075Z,11.11
2022-10-18T06:06:54.419Z,11.14
2022-10-18T06:09:20.795Z,11.18
2022-10-18T06:11:47.085Z,11.22
2022-10-18T06:14:14.152Z,10.93
2022-10-18T06:16:40.621Z,10.99
2022-10-18T06:19:14.229Z,10.91
2022-10-18T06:21:40.535Z,11.09
2022-10-18T06:24:10.933Z,11.07
2022-10-18T06:26:37.192Z,11.17
2022-10-18T06:29:03.542Z,11.26
2022-10-18T06:31:29.980Z,11.30
2022-10-18T06:33:56.385Z,11.42
2022-10-18T06:36:22.875Z,11.49
2022-10-18T06:38:49.917Z,11.55
2022-10-18T06:41:16.184Z,11.60
2022-10-18T06:43:42.443Z,11.64
2022-10-18T06:46:09.089Z,11.70
2022-10-18T06:48:38.324Z,11.74
2022-10-18T06:51:04.590Z,11.73
2022-10-18T06:53:30.978Z,11.79
2022-10-18T06:55:57.310Z,11.84
2022-10-18T06:58:23.581Z,11.85
2022-10-18T07:00:49.848Z,11.87
2022-10-18T07:03:16.205Z,11.99
2022-10-18T07:05:42.482Z,11.94
2022-10-18T07:08:09.024Z,12.00
2022-10-18T07:10:35.518Z,12.08
2022-10-18T07:13:27.341Z,12.10
2022-10-18T07:15:48.995Z,12.17
2022-10-18T07:18:15.247Z,12.23
2022-10-18T07:20:41.514Z,12.30
2022-10-18T07:23:08.062Z,12.26
2022-10-18T07:25:34.331Z,12.25
2022-10-18T07:28:00.589Z,12.28
2022-10-18T07:30:29.748Z,12.28
2022-10-18T07:32:56.045Z,12.34
2022-10-18T07:35:22.355Z,12.39
2022-10-18T07:37:48.951Z,12.40
2022-10-18T07:40:17.643Z,12.43
2022-10-18T07:42:51.255Z,12.36
2022-10-18T07:45:20.629Z,12.50
2022-10-18T07:47:47.132Z,12.55
2022-10-18T07:50:13.457Z,12.64
2022-10-18T07:52:41.870Z,12.63
2022-10-18T07:55:08.211Z,12.61
2022-10-18T07:57:34.962Z,12.56
2022-10-18T08:00:01.694Z,12.62
2022-10-18T08:02:29.106Z,12.72
2022-10-18T08:04:55.615Z,12.75
2022-10-18T08:07:21.997Z,12.83
2022-10-18T08:09:48.335Z,12.81
2022-10-18T08:12:14.652Z,12.94
2022-10-18T08:14:41.714Z,12.97
2022-10-18T08:17:08.005Z,13.02
2022-10-18T08:19:37.123Z,13.07
2022-10-18T08:22:03.965Z,13.17
2022-10-18T08:24:30.250Z,13.20
2022-10-18T08:26:56.771Z,13.21
2022-10-18T08:29:25.862Z,13.35
2022-10-18T08:31:54.361Z,13.40
2022-10-18T08:34:20.632Z,13.39
2022-10-18T08:36:47.230Z,13.51
2022-10-18T08:39:13.481Z,13.46
2022-10-18T08:41:39.893Z,13.54
2022-10-18T08:44:07.509Z,13.63
2022-10-18T08:46:34.031Z,13.58
2022-10-18T08:49:02.784Z,13.66
2022-10-18T08:51:30.049Z,13.61
2022-10-18T08:53:56.350Z,13.62
2022-10-18T08:56:22.633Z,13.74
2022-10-18T08:58:49.147Z,13.75
2022-10-18T09:01:15.443Z,13.69
2022-10-18T09:03:41.767Z,13.75
2022-10-18T09:06:08.185Z,13.85
2022-10-18T09:08:37.626Z,13.56
2022-10-18T09:11:03.906Z,13.62
2022-10-18T09:13:30.385Z,13.55
2022-10-18T09:15:56.713Z,13.67
2022-10-18T09:18:22.979Z,13.82
2022-10-18T09:20:49.453Z,13.90
2022-10-18T09:23:15.851Z,13.97
2022-10-18T09:25:42.339Z,14.09
2022-10-18T09:28:08.720Z,13.98
2022-10-18T09:30:37.403Z,14.02
2022-10-18T09:33:03.735Z,14.08
2022-10-18T09:35:31.199Z,14.12
2022-10-18T09:37:57.536Z,14.13
2022-10-18T09:40:24.278Z,14.21
2022-10-18T09:42:50.714Z,14.24
2022-10-18T09:45:16.977Z,14.33
2022-10-18T09:47:43.324Z,14.36
2022-10-18T09:50:09.752Z,14.42
2022-10-18T09:52:36.060Z,14.37
2022-10-18T09:55:02.361Z,14.39
2022-10-18T09:57:29.486Z,14.47
2022-10-18T09:59:56.034Z,14.34
2022-10-18T10:02:23.362Z,14.34
2022-10-18T10:04:49.990Z,14.35
2022-10-18T10:07:17.286Z,14.32
2022-10-18T10:09:43.572Z,13.82
2022-10-18T10:12:10.099Z,14.15
2022-10-18T10:14:36.353Z,14.14
2022-10-18T10:17:02.783Z,14.15
2022-10-18T10:19:30.172Z,14.43
2022-10-18T10:21:56.604Z,14.43
2022-10-18T10:24:24.992Z,14.38
2022-10-18T10:26:53.962Z,14.30
2022-10-18T10:29:33.572Z,14.39
2022-10-18T10:32:08.566Z,14.52
2022-10-18T10:34:35.278Z,14.48
2022-10-18T10:37:03.989Z,14.49
2022-10-18T10:39:30.656Z,14.47
2022-10-18T10:41:56.955Z,14.48
2022-10-18T10:44:23.239Z,14.45
2022-10-18T10:46:49.880Z,14.60
2022-10-18T10:49:39.150Z,14.53
2022-10-18T10:52:15.470Z,14.58
2022-10-18T10:54:52.107Z,14.82
2022-10-18T10:57:19.084Z,14.69
2022-10-18T10:59:45.728Z,14.78
2022-10-18T11:02:12.199Z,14.68
2022-10-18T11:04:38.504Z,14.72
2022-10-18T11:07:05.792Z,14.75
2022-10-18T11:09:32.293Z,14.89
2022-10-18T11:11:59.182Z,14.91
2022-10-18T11:14:26.880Z,14.82
2022-10-18T11:16:53.300Z,14.89
2022-10-18T11:19:19.941Z,14.90
2022-10-18T11:21:46.250Z,14.90
2022-10-18T11:24:12.638Z,14.85
2022-10-18T11:26:41.074Z,15.00
2022-10-18T11:29:09.164Z,15.13
2022-10-18T11:31:35.433Z,15.27
2022-10-18T11:34:09.287Z,15.28
2022-10-18T11:36:36.833Z,15.30
2022-10-18T11:39:05.987Z,15.38
2022-10-18T11:41:32.287Z,15.48
2022-10-18T11:44:03.679Z,15.45
2022-10-18T11:46:30.478Z,15.33
2022-10-18T11:48:56.869Z,15.28
2022-10-18T11:51:34.097Z,15.33
2022-10-18T11:54:05.083Z,15.41
2022-10-18T11:56:31.340Z,15.48
2022-10-18T11:58:57.637Z,15.58
2022-10-18T12:01:27.697Z,15.50
2022-10-18T12:03:55.018Z,15.54
2022-10-18T12:06:21.277Z,15.69
2022-10-18T12:08:48.205Z,15.69
2022-10-18T12:11:14.449Z,15.74
2022-10-18T12:13:40.714Z,15.76
2022-10-18T12:16:07.115Z,15.77
2022-10-18T12:18:35.461Z,15.70
2022-10-18T12:21:01.799Z,15.68
2022-10-18T12:23:28.276Z,15.79
2022-10-18T12:25:54.574Z,15.72
2022-10-18T12:28:20.863Z,15.78
2022-10-18T12:30:47.192Z,15.89
2022-10-18T12:33:27.923Z,15.88
2022-10-18T12:35:55.112Z,16.07
2022-10-18T12:38:21.378Z,16.05
2022-10-18T12:40:47.816Z,16.16
2022-10-18T12:43:14.086Z,16.20
2022-10-18T12:45:40.365Z,16.27
2022-10-18T12:48:06.667Z,16.35
2022-10-18T12:50:33.410Z,16.39
2022-10-18T12:53:00.695Z,16.36
2022-10-18T12:55:27.261Z,16.50
2022-10-18T12:57:53.870Z,16.53
2022-10-18T13:00:20.138Z,16.63
2022-10-18T13:02:46.448Z,16.66
2022-10-18T13:05:22.296Z,16.73
2022-10-18T13:07:59.182Z,16.78
2022-10-18T13:10:28.677Z,16.83
2022-10-18T13:12:55.077Z,16.85
2022-10-18T13:15:26.250Z,16.95
2022-10-18T13:17:54.130Z,16.81
2022-10-18T13:20:25.983Z,16.91
2022-10-18T13:22:52.927Z,17.02
2022-10-18T13:25:21.378Z,16.96
2022-10-18T13:27:49.023Z,17.03
2022-10-18T13:30:15.485Z,17.15
2022-10-18T13:32:42.538Z,17.14
2022-10-18T13:35:09.190Z,17.28
2022-10-18T13:37:39.763Z,17.36
2022-10-18T13:40:06.298Z,17.47
2022-10-18T13:42:32.882Z,17.51
2022-10-18T13:45:00.376Z,17.47
2022-10-18T13:47:26.790Z,17.52
2022-10-18T13:49:58.534Z,17.53
2022-10-18T13:52:26.696Z,17.61
2022-10-18T13:54:53.183Z,17.72
2022-10-18T13:57:19.467Z,17.79
2022-10-18T13:59:45.733Z,17.81
2022-10-18T14:02:12.199Z,17.78
2022-10-18T14:04:38.482Z,17.86
2022-10-18T14:07:07.256Z,17.94
2022-10-18T14:09:43.582Z,18.02
2022-10-18T14:12:10.966Z,18.04
2022-10-18T14:14:37.406Z,18.05
2022-10-18T14:17:03.685Z,18.02
2022-10-18T14:19:29.972Z,18.04
2022-10-18T14:21:57.059Z,18.12
2022-10-18T14:24:23.365Z,18.14
2022-10-18T14:26:49.621Z,18.15
2022-10-18T14:29:16.194Z,18.18
2022-10-18T14:31:42.509Z,18.21
2022-10-18T14:34:08.782Z,18.21
2022-10-18T14:36:35.150Z,18.24
2022-10-18T14:39:01.419Z,18.29
2022-10-18T14:41:27.679Z,18.29
2022-10-18T14:43:54.087Z,18.25
2022-10-18T14:46:20.369Z,18.24
2022-10-18T14:48:46.672Z,18.14
2022-10-18T14:51:13.387Z,18.12
2022-10-18T14:53:39.686Z,18.07
2022-10-18T14:56:05.937Z,18.05
2022-10-18T14:58:32.284Z,18.04
2022-10-18T15:00:58.597Z,17.97
2022-10-18T15:03:24.970Z,17.89
2022-10-18T15:05:51.293Z,17.88
2022-10-18T15:08:18.116Z,17.80
2022-10-18T15:10:44.681Z,17.82
2022-10-18T15:13:11.885Z,17.80
2022-10-18T15:15:38.377Z,17.73
2022-10-18T15:18:04.927Z,17.70
2022-10-18T15:20:31.514Z,17.67
2022-10-18T15:22:57.920Z,17.65
2022-10-18T15:25:26.777Z,17.64
2022-10-18T15:27:54.703Z,17.61
2022-10-18T15:30:20.982Z,17.62
2022-10-18T15:32:47.240Z,17.58
2022-10-18T15:35:14.449Z,17.55
2022-10-18T15:37:40.703Z,17.69
2022-10-18T15:40:06.983Z,17.74
2022-10-18T15:42:34.126Z,17.75
2022-10-18T15:45:00.403Z,17.74
2022-10-18T15:47:26.705Z,17.69
2022-10-18T15:49:53.808Z,17.62
2022-10-18T15:52:20.105Z,17.55
2022-10-18T15:57:15.262Z,17.29
2022-10-18T15:59:43.946Z,17.31
2022-10-18T16:02:12.280Z,17.28
2022-10-18T16:04:38.722Z,17.31
2022-10-18T16:07:05.012Z,17.33
2022-10-18T16:09:31.358Z,17.23
2022-10-18T16:11:58.335Z,17.18
2022-10-18T16:14:25.242Z,17.04
2022-10-18T16:16:51.644Z,16.94
2022-10-18T16:19:18.296Z,16.91
2022-10-18T16:21:44.720Z,16.79
2022-10-18T16:24:11.014Z,16.86
2022-10-18T16:26:37.512Z,16.65
2022-10-18T16:29:03.833Z,16.75
2022-10-18T16:31:30.120Z,16.97
2022-10-18T16:33:56.634Z,17.07
2022-10-18T16:36:23.537Z,17.13
2022-10-18T16:38:49.827Z,17.19
2022-10-18T16:41:16.202Z,17.30
2022-10-18T16:43:42.996Z,17.30
2022-10-18T16:46:09.455Z,17.30
2022-10-18T16:48:35.933Z,17.27
2022-10-18T16:51:02.210Z,17.15
2022-10-18T16:53:28.672Z,17.15
2022-10-18T16:55:59.245Z,16.98
2022-10-18T16:58:25.511Z,16.79
2022-10-18T17:00:51.799Z,16.61
2022-10-18T17:03:18.792Z,16.52
2022-10-18T17:05:45.132Z,16.63
2022-10-18T17:08:14.289Z,16.47
2022-10-18T17:10:43.280Z,16.54
2022-10-18T17:13:09.561Z,16.48
2022-10-18T17:15:35.972Z,16.54
2022-10-18T17:18:02.696Z,16.65
2022-10-18T17:20:29.224Z,16.68
2022-10-18T17:22:55.567Z,16.61
2022-10-18T17:25:22.878Z,16.56
2022-10-18T17:27:49.788Z,16.56
2022-10-18T17:30:16.546Z,16.58
2022-10-18T17:32:43.896Z,16.56
2022-10-18T17:35:10.388Z,16.51
2022-10-18T17:37:37.144Z,16.49
2022-10-18T17:40:05.303Z,16.46
2022-10-18T17:42:32.059Z,16.49
2022-10-18T17:44:58.668Z,16.37
2022-10-18T17:47:28.173Z,16.36
2022-10-18T17:49:55.505Z,16.33
2022-10-18T17:52:22.800Z,16.03
2022-10-18T17:54:49.425Z,16.07
2022-10-18T17:57:16.857Z,15.90
2022-10-18T17:59:43.769Z,15.88
2022-10-18T18:02:10.639Z,15.95
2022-10-18T18:04:37.411Z,15.98
2022-10-18T18:07:03.975Z,16.10
2022-10-18T18:09:30.937Z,16.10
2022-10-18T18:11:57.599Z,16.01
2022-10-18T18:14:24.371Z,15.94
2022-10-18T18:16:51.418Z,15.88
2022-10-18T18:19:18.701Z,16.00
2022-10-18T18:21:45.760Z,15.78
2022-10-18T18:24:12.895Z,15.78
2022-10-18T18:26:39.677Z,15.83
2022-10-18T18:29:06.396Z,15.93
2022-10-18T18:31:38.629Z,15.97
2022-10-18T18:34:08.123Z,15.97
2022-10-18T18:36:35.177Z,15.89
2022-10-18T18:39:02.049Z,15.83
2022-10-18T18:41:29.604Z,15.89
2022-10-18T18:43:56.556Z,15.85
2022-10-18T18:46:23.826Z,15.77
2022-10-18T18:48:52.080Z,15.73
2022-10-18T18:51:21.504Z,15.74
2022-10-18T18:53:48.290Z,15.76
2022-10-18T18:56:15.187Z,15.76
2022-10-18T18:58:41.730Z,15.74
2022-10-18T19:01:08.435Z,15.75
2022-10-18T19:03:35.289Z,15.74
2022-10-18T19:06:02.156Z,15.64
2022-10-18T19:08:29.354Z,15.52
2022-10-18T19:10:56.281Z,15.64
2022-10-18T19:13:23.264Z,15.47
2022-10-18T19:15:49.954Z,15.50
2022-10-18T19:18:20.385Z,15.60
2022-10-18T19:20:50.590Z,15.73
2022-10-18T19:23:17.078Z,15.55
2022-10-18T19:25:44.820Z,15.57
2022-10-18T19:28:12.520Z,15.21
2022-10-18T19:30:40.367Z,15.56
2022-10-18T19:33:07.277Z,15.33
2022-10-18T19:35:34.325Z,15.40
2022-10-18T19:38:01.056Z,15.46
2022-10-18T19:40:29.405Z,15.60
2022-10-18T19:42:55.933Z,15.76
2022-10-18T19:45:22.239Z,15.24
2022-10-18T19:47:52.177Z,15.57
2022-10-18T19:50:19.072Z,15.56
2022-10-18T19:52:46.718Z,15.25
2022-10-18T19:55:13.402Z,15.51
2022-10-18T19:57:41.600Z,15.80
2022-10-18T20:00:10.878Z,15.40
2022-10-18T20:02:38.730Z,15.56
2022-10-18T20:05:07.330Z,15.30
2022-10-18T20:07:34.013Z,15.54
2022-10-18T20:10:00.630Z,15.34
2022-10-18T20:12:27.186Z,15.43
2022-10-18T20:14:55.853Z,15.92
2022-10-18T20:17:22.923Z,15.54
2022-10-18T20:19:49.515Z,15.40
2022-10-18T20:22:15.801Z,15.45
2022-10-18T20:24:42.116Z,15.07
2022-10-18T20:27:08.666Z,14.87
2022-10-18T20:29:35.151Z,15.16
2022-10-18T20:32:01.454Z,15.20
2022-10-18T20:34:28.014Z,14.55
2022-10-18T20:36:54.443Z,14.59
2022-10-18T20:39:20.706Z,14.71
2022-10-18T20:41:47.875Z,14.59
2022-10-18T20:44:14.220Z,15.00
2022-10-18T20:46:40.592Z,15.14
2022-10-18T20:49:06.885Z,14.58
2022-10-18T20:51:33.180Z,15.18
2022-10-18T20:53:59.793Z,14.64
2022-10-18T20:56:26.806Z,14.95
2022-10-18T20:58:53.101Z,14.93
2022-10-18T21:01:20.718Z,15.32
2022-10-18T21:03:47.447Z,14.89
2022-10-18T21:06:13.721Z,14.67
2022-10-18T21:08:40.034Z,14.74
2022-10-18T21:11:06.658Z,14.42
2022-10-18T21:13:33.364Z,14.91
2022-10-18T21:15:59.682Z,15.06
2022-10-18T21:18:26.232Z,15.05
2022-10-18T21:20:52.697Z,14.36
2022-10-18T21:23:19.551Z,14.59
2022-10-18T21:25:47.146Z,13.99
2022-10-18T21:28:14.009Z,14.19
2022-10-18T21:30:40.301Z,13.66
2022-10-18T21:33:07.177Z,14.30
2022-10-18T21:35:33.526Z,13.90
2022-10-18T21:37:59.817Z,13.81
2022-10-18T21:40:26.723Z,14.34
2022-10-18T21:42:53.032Z,14.34
2022-10-18T21:45:19.522Z,14.23
2022-10-18T21:47:46.055Z,14.55
2022-10-18T21:50:12.339Z,14.73
2022-10-18T21:52:39.097Z,13.38
2022-10-18T21:55:05.647Z,13.45
2022-10-18T21:57:31.994Z,14.30
2022-10-18T21:59:58.276Z,14.18
2022-10-18T22:02:24.931Z,14.07
2022-10-18T22:04:51.268Z,13.91
2022-10-18T22:07:17.513Z,13.85
2022-10-18T22:09:44.057Z,13.44
2022-10-18T22:12:13.196Z,13.80
2022-10-18T22:14:39.511Z,13.91
2022-10-18T22:17:05.988Z,13.53
2022-10-18T22:19:32.397Z,13.69
2022-10-18T22:21:58.732Z,13.58
2022-10-18T22:24:25.778Z,13.60
2022-10-18T22:26:52.072Z,14.15
2022-10-18T22:29:18.330Z,13.44
2022-10-18T22:31:44.652Z,13.90
2022-10-18T22:34:11.060Z,13.98
2022-10-18T22:36:37.373Z,13.35
2022-10-18T22:39:03.954Z,13.77
2022-10-18T22:41:30.208Z,13.66
2022-10-18T22:43:59.769Z,13.89
2022-10-18T22:46:29.028Z,13.19
2022-10-18T22:48:55.299Z,13.50
2022-10-18T22:51:21.583Z,13.54
2022-10-18T22:53:48.751Z,13.15
2022-10-18T22:56:15.038Z,12.73
2022-10-18T22:58:41.292Z,12.63
2022-10-18T23:01:07.706Z,12.01
2022-10-18T23:03:35.022Z,12.00
2022-10-18T23:06:03.448Z,12.25
2022-10-18T23:08:32.097Z,11.98
2022-10-18T23:10:58.404Z,12.80
2022-10-18T23:13:24.697Z,12.68
2022-10-18T23:15:51.563Z,12.22
2022-10-18T23:18:17.823Z,12.32
2022-10-18T23:20:44.312Z,12.23
2022-10-18T23:23:10.883Z,12.20
2022-10-18T23:25:37.176Z,12.60
2022-10-18T23:28:03.513Z,12.39
2022-10-18T23:30:30.715Z,12.18
2022-10-18T23:32:57.096Z,12.44
2022-10-18T23:35:23.410Z,12.86
2022-10-18T23:37:50.783Z,12.21
2022-10-18T23:40:17.211Z,12.59
2022-10-18T23:42:43.518Z,12.43
2022-10-18T23:45:09.877Z,12.27
2022-10-18T23:47:36.355Z,12.23
2022-10-18T23:50:03.247Z,12.57
2022-10-18T23:52:29.631Z,12.53
2022-10-18T23:54:56.058Z,12.85
2022-10-18T23:57:24.631Z,12.78
2022-10-18T23:59:50.957Z,12.40
